Time;durP1;ratioP1;P1;durP2;ratioP2;P2;SDS_P1;SDS_P2;PMS_P1;PMS_P2;Temp;Humidity;BMP_temperature;BMP_pressure;BME280_temperature;BME280_humidity;BME280_pressure;Samples;Min_cycle;Max_cycle;Signal;HPM_P1;HPM_P2
2023/07/08 00:00:54;;;;;;;8.93;3.28;;;;;;;20.04;100.00;101326.41;4888352;29;20056;-79
2023/07/08 00:03:22;;;;;;;10.40;3.58;;;;;;;20.03;100.00;101316.38;4898798;29;20056;-79
2023/07/08 00:06:22;;;;;;;6.03;3.22;;;;;;;19.99;100.00;101315.75;4887500;29;20083;-78
2023/07/08 00:08:51;;;;;;;6.15;3.00;;;;;;;19.94;100.00;101307.88;4889351;29;20052;-80
2023/07/08 00:11:18;;;;;;;10.07;3.40;;;;;;;19.98;100.00;101307.75;4890694;29;20079;-81
2023/07/08 00:13:45;;;;;;;10.48;3.15;;;;;;;19.97;100.00;101306.16;4889105;29;20060;-77
2023/07/08 00:16:25;;;;;;;8.73;3.22;;;;;;;19.93;100.00;101309.16;4890663;29;20128;-75
2023/07/08 00:18:56;;;;;;;12.82;3.47;;;;;;;19.95;100.00;101309.47;4885134;29;20059;-75
2023/07/08 00:21:22;;;;;;;11.60;3.67;;;;;;;19.92;100.00;101301.16;4880029;29;20127;-75
2023/07/08 00:23:51;;;;;;;11.52;3.40;;;;;;;19.92;100.00;101287.84;4903397;29;20111;-75
2023/07/08 00:26:36;;;;;;;6.95;2.92;;;;;;;19.91;100.00;101296.75;4928184;29;20103;-75
2023/07/08 00:29:32;;;;;;;8.02;3.20;;;;;;;19.88;100.00;101298.47;4928233;29;20059;-79
2023/07/08 00:32:14;;;;;;;6.70;3.20;;;;;;;19.89;100.00;101293.63;4929090;29;20549;-76
2023/07/08 00:34:41;;;;;;;8.40;3.47;;;;;;;19.87;100.00;101291.25;4925854;29;20143;-77
2023/07/08 00:37:12;;;;;;;11.73;3.83;;;;;;;19.87;100.00;101291.25;4932191;29;20054;-76
2023/07/08 00:39:40;;;;;;;9.70;3.13;;;;;;;19.90;100.00;101286.72;4930196;29;20520;-77
2023/07/08 00:42:25;;;;;;;6.45;3.17;;;;;;;19.89;100.00;101285.16;4932005;29;20139;-76
2023/07/08 00:44:52;;;;;;;9.75;2.88;;;;;;;19.84;100.00;101275.25;4930630;29;20060;-75
2023/07/08 00:47:19;;;;;;;8.60;3.10;;;;;;;19.91;100.00;101285.47;4931500;29;20043;-75
2023/07/08 00:49:57;;;;;;;22.13;3.50;;;;;;;19.87;100.00;101285.63;4932174;29;20142;-76
2023/07/08 00:52:26;;;;;;;8.50;3.03;;;;;;;19.87;100.00;101282.78;4928752;29;20139;-77
2023/07/08 00:54:56;;;;;;;9.52;2.97;;;;;;;19.91;100.00;101282.66;4930473;29;20139;-76
2023/07/08 00:57:26;;;;;;;5.72;3.00;;;;;;;19.94;100.00;101288.13;4931359;29;20505;-77
2023/07/08 01:00:11;;;;;;;8.60;3.67;;;;;;;19.90;100.00;101290.31;4931606;29;20146;-77
2023/07/08 01:02:51;;;;;;;9.00;3.28;;;;;;;19.92;100.00;101289.84;4929309;28;21014;-77
2023/07/08 01:05:38;;;;;;;;;;;;;;;19.96;100.00;101288.47;4930825;29;20058;-75
2023/07/08 01:08:06;;;;;;;6.43;3.10;;;;;;;19.92;100.00;101282.19;4933883;29;19930;-77
2023/07/08 01:10:43;;;;;;;11.35;3.40;;;;;;;19.88;100.00;101275.88;4932278;29;20047;-76
2023/07/08 01:13:14;;;;;;;8.63;3.25;;;;;;;19.90;100.00;101290.31;4931210;29;20118;-77
2023/07/08 01:15:44;;;;;;;9.10;3.28;;;;;;;19.88;100.00;101283.59;4932068;29;20429;-75
2023/07/08 01:18:16;;;;;;;8.95;3.30;;;;;;;19.87;100.00;101270.75;4932078;29;20103;-75
2023/07/08 01:20:43;;;;;;;10.75;3.25;;;;;;;19.83;100.00;101276.53;4931973;29;20122;-74
2023/07/08 01:23:13;;;;;;;6.32;3.40;;;;;;;19.84;100.00;101275.25;4926627;29;20091;-75
2023/07/08 01:25:42;;;;;;;9.35;3.38;;;;;;;19.87;100.00;101277.16;4933257;29;20102;-74
2023/07/08 01:28:10;;;;;;;8.65;3.15;;;;;;;19.84;100.00;101274.50;4931490;29;20163;-77
2023/07/08 01:30:37;;;;;;;8.82;3.30;;;;;;;19.82;100.00;101269.31;4931867;29;20052;-76
2023/07/08 01:33:12;;;;;;;6.57;3.20;;;;;;;19.80;100.00;101274.63;4928698;29;20526;-77
2023/07/08 01:35:38;;;;;;;;;;;;;;;19.80;100.00;101260.53;4930912;29;20558;-74
2023/07/08 01:38:12;;;;;;;5.13;2.97;;;;;;;19.77;100.00;101271.97;4930756;29;19930;-76
2023/07/08 01:40:48;;;;;;;9.82;3.03;;;;;;;19.68;100.00;101269.94;4941595;28;20122;-75
2023/07/08 01:43:14;;;;;;;10.38;3.65;;;;;;;19.69;100.00;101258.16;4930165;29;20788;-73
2023/07/08 01:45:42;;;;;;;11.63;3.95;;;;;;;19.64;100.00;101252.34;4931687;29;20055;-78
2023/07/08 01:48:13;;;;;;;7.03;2.90;;;;;;;19.62;100.00;101257.69;4931522;29;20482;-75
2023/07/08 01:51:00;;;;;;;8.43;3.35;;;;;;;19.55;100.00;101244.66;4929263;29;20154;-75
2023/07/08 01:53:36;;;;;;;13.05;3.63;;;;;;;19.53;100.00;101249.19;4923830;29;20685;-75
2023/07/08 01:56:03;;;;;;;8.85;3.42;;;;;;;19.49;100.00;101243.72;4930682;29;20479;-75
2023/07/08 01:58:30;;;;;;;10.48;3.80;;;;;;;19.50;100.00;101238.84;4929250;29;20090;-76
2023/07/08 02:00:57;;;;;;;11.20;3.78;;;;;;;19.47;100.00;101243.34;4930914;29;20111;-75
2023/07/08 02:03:26;;;;;;;8.93;3.75;;;;;;;19.43;100.00;101248.38;4931712;29;20490;-75
2023/07/08 02:05:52;;;;;;;8.38;3.67;;;;;;;19.40;100.00;101240.84;4929014;29;20138;-76
2023/07/08 02:08:19;;;;;;;7.53;3.42;;;;;;;19.41;100.00;101245.22;4930013;29;20498;-76
2023/07/08 02:10:56;;;;;;;12.27;3.80;;;;;;;19.39;100.00;101246.94;4931830;29;20083;-76
2023/07/08 02:13:24;;;;;;;10.10;3.30;;;;;;;19.33;100.00;101229.06;4931884;29;20054;-75
2023/07/08 02:15:51;;;;;;;7.25;3.50;;;;;;;19.35;100.00;101243.50;4930835;29;20059;-74
2023/07/08 02:18:23;;;;;;;8.07;3.45;;;;;;;19.32;100.00;101241.59;4928527;29;20048;-76
2023/07/08 02:20:50;;;;;;;8.30;3.45;;;;;;;19.33;100.00;101241.13;4931674;29;20055;-77
2023/07/08 02:23:17;;;;;;;8.60;3.58;;;;;;;19.26;100.00;101240.63;4930135;29;20538;-77
2023/07/08 02:25:53;;;;;;;10.57;3.80;;;;;;;19.23;100.00;101241.56;4930776;29;20122;-77
2023/07/08 02:28:21;;;;;;;11.35;3.63;;;;;;;19.26;100.00;101235.00;4929898;29;20087;-77
2023/07/08 02:30:47;;;;;;;6.28;3.45;;;;;;;19.19;100.00;101226.81;4929987;29;20490;-77
2023/07/08 02:33:17;;;;;;;7.25;3.63;;;;;;;19.14;100.00;101227.44;4930826;29;20047;-77
2023/07/08 02:35:45;;;;;;;9.48;3.88;;;;;;;19.11;100.00;101231.19;4930711;29;20052;-77
2023/07/08 02:38:11;;;;;;;7.43;3.85;;;;;;;19.05;100.00;101224.59;4930512;29;20056;-77
2023/07/08 02:40:38;;;;;;;10.48;3.40;;;;;;;19.00;100.00;101222.38;4930887;29;20075;-77
2023/07/08 02:43:05;;;;;;;16.25;4.15;;;;;;;18.95;100.00;101228.63;4931327;29;20051;-77
2023/07/08 02:45:31;;;;;;;8.85;3.45;;;;;;;18.93;100.00;101233.91;4931100;29;20051;-73
2023/07/08 02:47:58;;;;;;;9.73;3.97;;;;;;;18.90;100.00;101234.88;4925581;29;20086;-77
2023/07/08 02:50:24;;;;;;;8.18;3.55;;;;;;;18.87;100.00;101238.59;4930637;29;20051;-76
2023/07/08 02:52:51;;;;;;;8.73;3.85;;;;;;;18.83;100.00;101229.47;4931301;29;20130;-77
2023/07/08 02:55:17;;;;;;;9.23;4.03;;;;;;;18.81;100.00;101229.19;4931758;29;20051;-76
2023/07/08 02:57:44;;;;;;;9.68;3.70;;;;;;;18.73;100.00;101231.47;4931672;29;20131;-76
2023/07/08 03:00:12;;;;;;;10.38;3.63;;;;;;;18.70;100.00;101229.53;4944283;28;20114;-75
2023/07/08 03:02:38;;;;;;;11.20;3.72;;;;;;;18.66;100.00;101223.28;4928906;29;20126;-75
2023/07/08 03:05:06;;;;;;;9.20;3.83;;;;;;;18.61;100.00;101226.69;4944892;28;20103;-76
2023/07/08 03:07:33;;;;;;;8.55;3.28;;;;;;;18.62;100.00;101224.66;4925898;29;20052;-76
2023/07/08 03:09:59;;;;;;;10.23;3.50;;;;;;;18.60;100.00;101227.94;4923414;29;20506;-77
2023/07/08 03:12:26;;;;;;;6.43;3.55;;;;;;;18.55;100.00;101222.91;4924580;29;20055;-76
2023/07/08 03:14:52;;;;;;;8.48;3.72;;;;;;;18.45;100.00;101220.47;4931137;29;20126;-76
2023/07/08 03:17:19;;;;;;;9.55;3.53;;;;;;;18.44;100.00;101224.56;4930623;29;20052;-76
2023/07/08 03:19:46;;;;;;;10.88;3.83;;;;;;;18.42;100.00;101224.22;4925348;29;20051;-75
2023/07/08 03:22:13;;;;;;;9.20;3.67;;;;;;;18.39;100.00;101222.34;4934102;29;20079;-75
2023/07/08 03:24:45;;;;;;;9.48;3.90;;;;;;;18.35;100.00;101230.09;4932768;29;20059;-77
2023/07/08 03:27:13;;;;;;;7.03;3.40;;;;;;;18.33;100.00;101229.81;4932423;29;20055;-75
2023/07/08 03:29:40;;;;;;;8.80;3.85;;;;;;;18.28;100.00;101227.56;4932202;29;20210;-76
2023/07/08 03:32:12;;;;;;;9.73;3.70;;;;;;;18.28;100.00;101230.38;4932890;29;20074;-76
2023/07/08 03:34:38;;;;;;;9.50;3.90;;;;;;;18.28;100.00;101233.19;4934283;29;20419;-77
2023/07/08 03:37:05;;;;;;;11.88;4.00;;;;;;;18.24;100.00;101221.28;4933178;29;20063;-76
2023/07/08 03:39:32;;;;;;;7.97;3.50;;;;;;;18.30;100.00;101225.09;4933601;29;20071;-77
2023/07/08 03:41:59;;;;;;;9.55;4.50;;;;;;;18.28;100.00;101227.56;4933876;29;20079;-76
2023/07/08 03:44:26;;;;;;;10.98;4.18;;;;;;;18.26;100.00;101224.44;4924351;29;20051;-76
2023/07/08 03:46:52;;;;;;;8.60;3.83;;;;;;;18.26;100.00;101224.44;4933648;29;20087;-76
2023/07/08 03:49:23;;;;;;;12.98;4.07;;;;;;;18.25;100.00;101234.09;4933875;29;20568;-75
2023/07/08 03:51:53;;;;;;;8.00;3.95;;;;;;;18.20;100.00;101226.25;4933889;29;20623;-77
2023/07/08 03:54:23;;;;;;;12.30;4.00;;;;;;;18.23;100.00;101225.34;4932913;29;20052;-77
2023/07/08 03:56:50;;;;;;;7.68;3.70;;;;;;;18.21;100.00;101230.63;4933286;29;20114;-77
2023/07/08 03:59:17;;;;;;;9.00;3.53;;;;;;;18.21;100.00;101239.88;4933670;29;20055;-77
2023/07/08 04:01:44;;;;;;;7.63;3.85;;;;;;;18.20;100.00;101243.16;4936089;29;20498;-77
2023/07/08 04:04:13;;;;;;;9.98;4.22;;;;;;;18.19;100.00;101235.97;4933908;29;20774;-76
2023/07/08 04:06:39;;;;;;;7.82;3.60;;;;;;;18.19;100.00;101233.91;4931771;29;20079;-76
2023/07/08 04:09:06;;;;;;;12.27;4.15;;;;;;;18.19;100.00;101235.97;4925885;29;20047;-76
2023/07/08 04:11:33;;;;;;;11.10;4.32;;;;;;;18.18;100.00;101237.97;4947326;29;20553;-77
2023/07/08 04:14:00;;;;;;;11.05;3.78;;;;;;;18.16;100.00;101237.63;4932118;29;20134;-77
2023/07/08 04:16:31;;;;;;;10.90;4.70;;;;;;;18.15;100.00;101246.53;4932950;29;20106;-75
2023/07/08 04:18:57;;;;;;;9.93;4.05;;;;;;;18.14;100.00;101254.22;4932048;29;20139;-76
2023/07/08 04:21:25;;;;;;;11.27;4.07;;;;;;;18.16;100.00;101253.75;4932457;29;20083;-77
2023/07/08 04:23:51;;;;;;;9.80;3.95;;;;;;;18.12;100.00;101255.91;4933240;29;20072;-76
2023/07/08 04:26:18;;;;;;;10.23;4.10;;;;;;;18.12;100.00;101242.59;4931693;29;20577;-77
2023/07/08 04:28:45;;;;;;;10.35;3.83;;;;;;;18.16;100.00;101245.31;4931509;29;20056;-77
2023/07/08 04:31:12;;;;;;;10.52;4.13;;;;;;;18.17;100.00;101253.28;4931192;29;20055;-77
2023/07/08 04:33:38;;;;;;;7.70;4.05;;;;;;;18.17;100.00;101258.13;4932485;29;20410;-77
2023/07/08 04:36:12;;;;;;;9.88;3.92;;;;;;;18.17;100.00;101260.94;4932521;29;20193;-77
2023/07/08 04:38:41;;;;;;;11.23;4.50;;;;;;;18.20;100.00;101260.03;4932715;29;20506;-77
2023/07/08 04:41:07;;;;;;;9.88;3.90;;;;;;;18.22;100.00;101252.69;4932705;29;20530;-77
2023/07/08 04:43:34;;;;;;;11.50;4.30;;;;;;;18.26;100.00;101258.97;4931985;29;20067;-78
2023/07/08 04:46:01;;;;;;;9.23;3.85;;;;;;;18.32;100.00;101259.16;4931302;29;20115;-75
2023/07/08 04:48:27;;;;;;;10.70;4.47;;;;;;;18.31;100.00;101258.41;4932508;28;20063;-75
2023/07/08 04:50:54;;;;;;;9.75;3.95;;;;;;;18.42;100.00;101261.59;4931655;29;20157;-74
2023/07/08 04:53:20;;;;;;;14.32;3.80;;;;;;;18.51;100.00;101263.69;4931491;29;20502;-77
2023/07/08 04:55:51;;;;;;;9.98;4.20;;;;;;;18.58;100.00;101258.59;4930819;29;20147;-76
2023/07/08 04:58:17;;;;;;;11.13;4.40;;;;;;;18.68;100.00;101262.25;4932641;29;20138;-74
2023/07/08 05:00:44;;;;;;;10.85;4.95;;;;;;;18.74;100.00;101261.22;4928115;29;20085;-75
2023/07/08 05:03:11;;;;;;;9.18;4.05;;;;;;;18.85;100.00;101272.06;4923439;29;20075;-78
2023/07/08 05:05:37;;;;;;;11.13;4.50;;;;;;;18.94;100.00;101269.31;4931867;29;20059;-76
2023/07/08 05:08:04;;;;;;;11.88;4.47;;;;;;;19.03;100.00;101263.72;4929136;29;20074;-75
2023/07/08 05:10:31;;;;;;;13.40;4.53;;;;;;;19.06;100.00;101257.94;4932151;29;20854;-76
2023/07/08 05:12:57;;;;;;;16.95;3.78;;;;;;;19.10;100.00;101267.03;4931864;29;20593;-77
2023/07/08 05:15:24;;;;;;;12.20;4.43;;;;;;;19.13;100.00;101268.94;4930640;29;20135;-77
2023/07/08 05:17:51;;;;;;;15.77;4.50;;;;;;;19.18;100.00;101261.91;4932727;29;20541;-75
2023/07/08 05:20:18;;;;;;;9.95;4.03;;;;;;;19.16;100.00;101258.75;4932252;29;20151;-75
2023/07/08 05:22:46;;;;;;;9.98;4.05;;;;;;;19.15;100.00;101260.00;4929767;29;20054;-76
2023/07/08 05:25:13;;;;;;;10.57;4.25;;;;;;;19.09;100.00;101268.28;4925205;29;20056;-76
2023/07/08 05:27:40;;;;;;;9.32;3.88;;;;;;;19.08;100.00;101263.91;4930309;29;20138;-78
2023/07/08 05:30:11;;;;;;;14.45;4.82;;;;;;;19.08;100.00;101263.91;4930360;29;20134;-75
2023/07/08 05:32:38;;;;;;;12.73;4.45;;;;;;;19.12;100.00;101267.38;4941847;28;20056;-74
2023/07/08 05:35:05;;;;;;;9.10;4.05;;;;;;;19.14;100.00;101266.91;4927916;29;20076;-74
2023/07/08 05:37:33;;;;;;;13.10;4.28;;;;;;;19.13;100.00;101254.84;4927693;29;20425;-76
2023/07/08 05:40:04;;;;;;;13.63;4.32;;;;;;;19.18;100.00;101259.09;4923371;29;20108;-76
2023/07/08 05:42:30;;;;;;;9.43;4.25;;;;;;;19.17;100.00;101255.47;4928322;29;20057;-76
2023/07/08 05:44:57;;;;;;;11.68;4.93;;;;;;;19.24;100.00;101254.41;4931691;29;20055;-76
2023/07/08 05:47:23;;;;;;;14.63;4.38;;;;;;;19.29;100.00;101254.59;4924980;29;20068;-74
2023/07/08 05:49:50;;;;;;;12.27;5.10;;;;;;;19.34;100.00;101253.97;4927005;29;20066;-75
2023/07/08 05:52:16;;;;;;;13.32;4.28;;;;;;;19.43;100.00;101256.81;4946100;28;20080;-75
2023/07/08 05:54:43;;;;;;;16.30;4.55;;;;;;;19.50;100.00;101250.13;4930024;29;20051;-73
2023/07/08 05:57:11;;;;;;;14.77;4.60;;;;;;;19.57;100.00;101244.19;4926384;29;20056;-75
2023/07/08 05:59:43;;;;;;;18.02;5.47;;;;;;;19.62;100.00;101247.16;4929255;29;20059;-75
2023/07/08 06:02:12;;;;;;;12.77;4.75;;;;;;;19.70;100.00;101242.03;4923369;29;20600;-77
2023/07/08 06:04:39;;;;;;;14.95;4.40;;;;;;;19.82;100.00;101254.41;4930177;29;20055;-73
2023/07/08 06:07:06;;;;;;;12.68;5.30;;;;;;;19.86;100.00;101243.75;4929653;29;20067;-77
2023/07/08 06:09:33;;;;;;;11.00;4.55;;;;;;;19.96;100.00;101250.97;4929786;29;20051;-75
2023/07/08 06:11:59;;;;;;;8.95;4.05;;;;;;;20.02;100.00;101249.91;4930066;29;20099;-75
2023/07/08 06:14:27;;;;;;;14.48;4.30;;;;;;;20.10;100.00;101251.16;4930050;29;20058;-76
2023/07/08 06:16:54;;;;;;;13.27;5.03;;;;;;;20.16;100.00;101248.47;4931473;29;20147;-77
2023/07/08 06:19:21;;;;;;;15.25;5.80;;;;;;;20.25;100.00;101246.47;4930770;29;20394;-74
2023/07/08 06:21:48;;;;;;;10.38;4.03;;;;;;;20.29;100.00;101252.75;4930000;29;20047;-74
2023/07/08 06:24:15;;;;;;;18.13;5.97;;;;;;;20.36;100.00;101255.25;4944767;28;20179;-75
2023/07/08 06:26:42;;;;;;;15.52;5.45;;;;;;;20.45;100.00;101260.88;4930524;29;20051;-73
2023/07/08 06:29:08;;;;;;;13.15;4.97;;;;;;;20.49;100.00;101257.91;4931202;29;20131;-75
2023/07/08 06:31:35;;;;;;;11.13;4.45;;;;;;;20.58;100.00;101253.00;4929347;28;20060;-75
2023/07/08 06:34:02;;;;;;;10.07;4.50;;;;;;;20.64;100.00;101244.66;4928700;29;20051;-77
2023/07/08 06:36:28;;;;;;;13.88;4.40;;;;;;;20.80;100.00;101249.97;4931130;29;20105;-76
2023/07/08 06:38:55;;;;;;;11.38;4.45;;;;;;;20.89;100.00;101253.56;4928530;29;20079;-78
2023/07/08 06:41:21;;;;;;;10.48;4.05;;;;;;;20.94;100.00;101240.84;4932423;29;20191;-77
2023/07/08 06:43:48;;;;;;;14.85;4.85;;;;;;;21.05;100.00;101255.25;4929331;29;20561;-76
2023/07/08 06:46:14;;;;;;;11.05;4.28;;;;;;;21.15;100.00;101251.13;4928167;29;20680;-76
2023/07/08 06:48:41;;;;;;;12.63;4.53;;;;;;;21.23;100.00;101246.72;4930949;29;20052;-75
2023/07/08 06:51:08;;;;;;;12.98;4.82;;;;;;;21.31;100.00;101247.91;4931809;29;20083;-75
2023/07/08 06:53:34;;;;;;;19.98;5.93;;;;;;;21.41;100.00;101255.88;4934892;29;20079;-76
2023/07/08 06:56:02;;;;;;;20.05;5.10;;;;;;;21.49;100.00;101254.25;4926352;29;20048;-76
2023/07/08 06:58:28;;;;;;;12.40;4.53;;;;;;;21.59;100.00;101246.50;4934132;29;20137;-76
2023/07/08 07:00:55;;;;;;;23.92;5.47;;;;;;;21.70;100.00;101253.22;4934078;29;20454;-77
2023/07/08 07:03:22;;;;;;;16.15;4.32;;;;;;;21.74;100.00;101241.72;4933392;29;20051;-76
2023/07/08 07:05:48;;;;;;;8.68;3.92;;;;;;;21.91;100.00;101249.28;4934479;28;20070;-77
2023/07/08 07:08:15;;;;;;;12.00;4.45;;;;;;;22.01;100.00;101252.84;4934587;29;20807;-79
2023/07/08 07:10:42;;;;;;;10.20;4.15;;;;;;;22.05;100.00;101242.88;4929213;28;20051;-79
2023/07/08 07:13:09;;;;;;;12.75;4.05;;;;;;;22.15;100.00;101246.44;4935396;29;20071;-76
2023/07/08 07:15:36;;;;;;;10.05;4.20;;;;;;;22.22;100.00;101246.06;4929900;29;20082;-77
2023/07/08 07:18:02;;;;;;;9.82;4.10;;;;;;;22.35;100.00;101240.13;4932703;29;20589;-71
2023/07/08 07:20:29;;;;;;;10.02;4.00;;;;;;;22.46;100.00;101246.78;4933542;29;20083;-69
2023/07/08 07:22:56;;;;;;;22.38;5.88;;;;;;;22.53;100.00;101248.44;4933439;29;20051;-75
2023/07/08 07:25:22;;;;;;;10.77;3.97;;;;;;;22.63;100.00;101244.25;4929274;29;20058;-75
2023/07/08 07:27:49;;;;;;;14.05;4.65;;;;;;;22.65;100.00;101245.34;4926975;29;20130;-76
2023/07/08 07:30:16;;;;;;;17.40;5.25;;;;;;;22.77;100.00;101249.94;4930062;29;20059;-76
2023/07/08 07:32:43;;;;;;;12.75;4.65;;;;;;;22.86;100.00;101240.53;4939132;29;20417;-75
2023/07/08 07:35:14;;;;;;;19.90;5.78;;;;;;;22.95;100.00;101237.59;4926966;28;20051;-74
2023/07/08 07:37:42;;;;;;;17.23;5.45;;;;;;;23.03;100.00;101241.63;4932737;29;20482;-75
2023/07/08 07:40:12;;;;;;;13.18;4.30;;;;;;;23.15;100.00;101241.31;4934334;29;20114;-74
2023/07/08 07:42:40;;;;;;;13.80;4.43;;;;;;;23.20;100.00;101240.63;4934251;29;20059;-74
2023/07/08 07:45:07;;;;;;;17.83;4.25;;;;;;;23.28;100.00;101246.66;4933422;29;20213;-73
2023/07/08 07:47:35;;;;;;;10.68;4.25;;;;;;;23.37;100.00;101240.84;4931104;29;20048;-74
2023/07/08 07:50:03;;;;;;;13.73;5.38;;;;;;;23.43;100.00;101247.41;4933104;29;20110;-75
2023/07/08 07:52:30;;;;;;;13.52;4.82;;;;;;;23.51;100.00;101243.66;4932869;29;20055;-77
2023/07/08 07:54:57;;;;;;;9.50;4.13;;;;;;;23.64;100.00;101249.00;4933553;29;20056;-75
2023/07/08 07:57:24;;;;;;;15.70;4.75;;;;;;;23.73;100.00;101246.81;4930941;29;20406;-75
2023/07/08 07:59:51;;;;;;;11.85;4.65;;;;;;;23.82;100.00;101243.06;4932546;29;20051;-75
2023/07/08 08:02:18;;;;;;;11.68;4.72;;;;;;;23.93;100.00;101248.91;4928858;29;20869;-76
2023/07/08 08:04:46;;;;;;;14.43;4.60;;;;;;;24.00;100.00;101252.06;4931220;29;20482;-76
2023/07/08 08:07:12;;;;;;;11.18;4.60;;;;;;;24.12;100.00;101244.47;4931646;29;20051;-75
2023/07/08 08:09:39;;;;;;;13.40;4.82;;;;;;;24.22;100.00;101252.38;4931763;29;20063;-73
2023/07/08 08:12:09;;;;;;;12.60;4.57;;;;;;;24.33;100.00;101258.16;4932714;29;20058;-73
2023/07/08 08:14:36;;;;;;;11.15;4.55;;;;;;;24.42;100.00;101255.16;4931872;29;20525;-73
2023/07/08 08:17:03;;;;;;;14.77;4.78;;;;;;;24.52;100.00;101252.94;4932248;29;20090;-75
2023/07/08 08:19:31;;;;;;;10.88;4.60;;;;;;;24.63;100.00;101253.03;4931394;29;20062;-72
2023/07/08 08:21:58;;;;;;;11.65;4.78;;;;;;;24.75;100.00;101251.09;4932750;29;20106;-73
2023/07/08 08:24:24;;;;;;;11.15;4.80;;;;;;;24.83;100.00;101255.81;4929669;29;20082;-72
2023/07/08 08:26:54;;;;;;;11.80;4.85;;;;;;;24.96;100.00;101264.75;4931527;29;21800;-71
2023/07/08 08:29:20;;;;;;;15.68;4.70;;;;;;;25.05;100.00;101252.41;4932047;29;20056;-74
2023/07/08 08:31:47;;;;;;;13.18;5.10;;;;;;;25.25;100.00;101258.00;4932700;29;20058;-73
2023/07/08 08:34:13;;;;;;;10.52;5.10;;;;;;;25.38;100.00;101261.94;4930389;29;20048;-75
2023/07/08 08:36:40;;;;;;;12.02;5.25;;;;;;;25.42;100.00;101264.56;4931513;29;20055;-74
2023/07/08 08:39:06;;;;;;;12.80;5.25;;;;;;;25.47;100.00;101253.25;4941290;28;20648;-74
2023/07/08 08:41:38;;;;;;;10.90;4.55;;;;;;;25.54;100.00;101258.47;4927645;29;20052;-74
2023/07/08 08:44:07;;;;;;;12.27;4.70;;;;;;;25.67;100.00;101258.81;4925851;29;20050;-74
2023/07/08 08:46:51;;;;;;;11.20;4.95;;;;;;;25.77;100.00;101263.00;4932245;29;20043;-74
2023/07/08 08:49:20;;;;;;;12.20;5.43;;;;;;;25.87;100.00;101257.84;4932332;29;20630;-74
2023/07/08 08:51:48;;;;;;;12.95;4.60;;;;;;;25.99;100.00;101260.22;4932138;29;20326;-74
2023/07/08 08:54:15;;;;;;;13.55;5.25;;;;;;;26.11;100.00;101250.47;4929580;29;20051;-74
2023/07/08 08:57:06;;;;;;;13.52;4.90;;;;;;;26.26;100.00;101253.13;4929184;29;20048;-74
2023/07/08 08:59:54;;;;;;;13.63;6.07;;;;;;;26.43;100.00;101254.69;4923807;29;20052;-75
2023/07/08 09:02:30;;;;;;;14.20;4.70;;;;;;;26.62;100.00;101252.97;4926602;29;20059;-73
2023/07/08 09:05:03;;;;;;;9.95;4.50;;;;;;;26.79;100.00;101255.06;4931616;29;20477;-74
2023/07/08 09:07:33;;;;;;;16.25;5.88;;;;;;;26.90;100.00;101246.50;4932431;29;20146;-74
2023/07/08 09:10:08;;;;;;;9.60;4.70;;;;;;;27.01;100.00;101243.63;4934048;29;20084;-74
2023/07/08 09:12:36;;;;;;;11.43;5.10;;;;;;;27.13;100.00;101253.75;4926578;29;20480;-76
2023/07/08 09:15:13;;;;;;;10.75;4.57;;;;;;;27.25;100.00;101255.31;4924942;29;20574;-76
2023/07/08 09:17:40;;;;;;;12.57;5.03;;;;;;;27.31;100.00;101256.09;4926283;29;20056;-77
2023/07/08 09:20:19;;;;;;;14.18;6.07;;;;;;;27.34;100.00;101255.06;4925816;29;20056;-77
2023/07/08 09:23:11;;;;;;;13.15;5.60;;;;;;;27.33;100.00;101253.50;4927560;29;20111;-76
2023/07/08 09:25:46;;;;;;;15.05;5.15;;;;;;;27.42;100.00;101247.50;4921381;29;20486;-76
2023/07/08 09:28:13;;;;;;;13.40;5.50;;;;;;;27.51;100.00;101250.88;4919260;29;20510;-77
2023/07/08 09:30:48;;;;;;;13.75;6.28;;;;;;;27.61;100.00;101259.94;4925562;29;20114;-76
2023/07/08 09:33:14;;;;;;;13.63;4.82;;;;;;;27.73;100.00;101253.69;4926503;29;20503;-76
2023/07/08 09:35:45;;;;;;;11.38;5.53;;;;;;;27.80;100.00;101255.19;4925620;29;20522;-77
2023/07/08 09:38:22;;;;;;;16.15;5.38;;;;;;;27.92;100.00;101254.66;4920168;29;20051;-76
2023/07/08 09:40:53;;;;;;;13.38;5.85;;;;;;;28.02;100.00;101255.13;4922996;29;20510;-76
2023/07/08 09:43:38;;;;;;;12.65;5.20;;;;;;;28.06;100.00;101250.69;4928984;29;20088;-76
2023/07/08 09:46:05;;;;;;;13.15;5.60;;;;;;;28.11;100.00;101258.44;4922471;29;20048;-76
2023/07/08 09:48:36;;;;;;;13.13;5.40;;;;;;;28.14;100.00;101254.53;4924328;29;20059;-74
2023/07/08 09:51:04;;;;;;;14.38;5.30;;;;;;;28.17;100.00;101244.13;4925354;29;20052;-78
2023/07/08 09:53:30;;;;;;;12.48;5.07;;;;;;;28.25;100.00;101242.28;4929353;29;20394;-80
2023/07/08 09:55:59;;;;;;;13.52;5.28;;;;;;;28.38;100.00;101236.78;4930512;29;20118;-76
2023/07/08 09:58:41;;;;;;;14.55;5.10;;;;;;;28.55;100.00;101251.75;4929553;29;20098;-76
2023/07/08 10:01:23;;;;;;;11.60;5.97;;;;;;;28.64;100.00;101237.88;4928494;29;20100;-77
2023/07/08 10:03:50;;;;;;;13.10;5.70;;;;;;;28.84;100.00;101251.03;4932046;29;20299;-79
2023/07/08 10:06:25;;;;;;;12.35;5.80;;;;;;;28.95;100.00;101256.66;4930357;29;20790;-79
2023/07/08 10:08:54;;;;;;;15.45;5.88;;;;;;;29.05;100.00;101255.00;4935306;29;20422;-79
2023/07/08 10:11:42;;;;;;;15.55;6.15;;;;;;;29.25;100.00;101245.22;4926933;29;20044;-76
2023/07/08 10:14:16;;;;;;;13.98;5.25;;;;;;;29.44;100.00;101263.25;4921004;29;20095;-76
2023/07/08 10:16:43;;;;;;;13.98;5.40;;;;;;;29.57;100.00;101255.56;4926145;29;20434;-76
2023/07/08 10:19:17;;;;;;;15.10;5.97;;;;;;;29.75;100.00;101251.19;4928193;29;20139;-79
2023/07/08 10:21:47;;;;;;;12.60;6.03;;;;;;;29.85;97.80;101255.25;4927472;29;20588;-77
2023/07/08 10:24:24;;;;;;;11.85;5.32;;;;;;;30.01;97.77;101255.06;4927929;29;20379;-78
2023/07/08 10:27:17;;;;;;;11.45;5.57;;;;;;;30.13;97.57;101244.97;4928866;29;20052;-78
2023/07/08 10:30:02;;;;;;;14.13;5.72;;;;;;;30.34;95.38;101243.13;4894064;29;20083;-76
2023/07/08 10:32:54;;;;;;;14.48;6.30;;;;;;;30.47;93.50;101242.47;4929727;29;20118;-76
2023/07/08 10:35:27;;;;;;;13.88;6.20;;;;;;;30.49;92.40;101237.72;4929869;29;20055;-78
2023/07/08 10:38:29;;;;;;;13.07;5.65;;;;;;;30.62;92.51;101229.16;4928835;29;20135;-77
2023/07/08 10:41:04;;;;;;;12.18;5.30;;;;;;;30.77;91.07;101240.13;4928699;29;20111;-78
2023/07/08 10:43:58;;;;;;;12.30;5.93;;;;;;;30.85;89.78;101229.59;4932693;29;20139;-76
2023/07/08 10:46:47;;;;;;;14.93;7.07;;;;;;;30.97;91.35;101225.22;4932171;29;20047;-75
2023/07/08 10:49:39;;;;;;;13.32;6.10;;;;;;;31.10;89.92;101228.13;4932606;29;20134;-75
2023/07/08 10:52:12;;;;;;;11.88;5.75;;;;;;;31.19;90.21;101227.69;4932209;29;20695;-75
2023/07/08 10:55:10;;;;;;;13.57;5.45;;;;;;;31.31;89.98;101220.41;4934562;29;20051;-75
2023/07/08 10:57:50;;;;;;;13.98;5.43;;;;;;;31.50;86.45;101220.34;4932553;29;20060;-76
2023/07/08 11:00:29;;;;;;;9.80;2.40;;;;;;;31.29;69.71;101220.19;4931323;29;20111;-75
2023/07/08 11:03:17;;;;;;;10.57;4.93;;;;;;;31.32;66.03;101215.44;4931570;29;20075;-77
2023/07/08 11:05:46;;;;;;;12.57;4.47;;;;;;;31.44;66.31;101216.78;4928658;29;20044;-75
2023/07/08 11:08:21;;;;;;;11.27;4.55;;;;;;;31.54;62.28;101215.03;4926728;29;20055;-75
2023/07/08 11:10:54;;;;;;;9.73;4.18;;;;;;;31.52;56.60;101214.81;4930725;29;20052;-76
2023/07/08 11:13:50;;;;;;;12.93;4.80;;;;;;;31.58;61.88;101209.75;4927678;29;20056;-75
2023/07/08 11:16:23;;;;;;;11.48;4.60;;;;;;;31.70;58.77;101199.56;4933336;29;20079;-76
2023/07/08 11:18:52;;;;;;;10.38;4.30;;;;;;;31.86;60.05;101207.09;4928537;29;20055;-73
2023/07/08 11:21:44;;;;;;;14.18;5.00;;;;;;;32.15;58.13;101198.06;4931628;29;20473;-76
2023/07/08 11:24:44;;;;;;;12.60;5.00;;;;;;;32.51;57.84;101199.06;4933228;29;20580;-76
2023/07/08 11:27:33;;;;;;;11.75;4.65;;;;;;;32.90;55.11;101195.22;4931368;29;20090;-76